Time;durP1;ratioP1;P1;durP2;ratioP2;P2;SDS_P1;SDS_P2;PMS_P1;PMS_P2;Temp;Humidity;BMP_temperature;BMP_pressure;BME280_temperature;BME280_humidity;BME280_pressure;Samples;Min_cycle;Max_cycle;Signal;HPM_P1;HPM_P2
2023/05/11 00:02:14;;;;;;;;;;;;;;;12.28;81.92;97728.91;5102443;27;20022;-67
2023/05/11 00:05:02;;;;;;;;;;;;;;;12.26;82.11;97717.56;5111091;27;19924;-68
2023/05/11 00:07:53;;;;;;;;;;;;;;;12.26;81.17;97725.72;5100961;27;19950;-70
2023/05/11 00:10:41;;;;;;;;;;;;;;;12.27;81.28;97726.53;5091842;28;20364;-66
2023/05/11 00:13:30;;;;;;;;;;;;;;;12.26;81.36;97719.47;5112073;27;20335;-67
2023/05/11 00:16:18;;;;;;;;;;;;;;;12.23;82.27;97718.19;5107332;27;19931;-68
2023/05/11 00:19:06;;;;;;;;;;;;;;;12.24;82.40;97717.06;5105511;27;19973;-63
2023/05/11 00:21:55;;;;;;;;;;;;;;;12.22;82.34;97719.31;5106172;28;19920;-68
2023/05/11 00:24:44;;;;;;;;;;;;;;;12.21;82.39;97719.66;5101288;28;19938;-67
2023/05/11 00:27:32;;;;;;;;;;;;;;;12.23;82.69;97714.66;5112651;28;19930;-69
2023/05/11 00:30:21;;;;;;;;;;;;;;;12.18;83.00;97717.56;5119716;27;19920;-68
2023/05/11 00:33:10;;;;;;;;;;;;;;;12.24;83.01;97710.81;5096554;28;19941;-66
2023/05/11 00:35:58;;;;;;;;;;;;;;;12.23;83.65;97710.03;5096597;28;20435;-68
2023/05/11 00:38:48;;;;;;;;;;;;;;;12.26;83.77;97714.03;5116769;27;20384;-66
2023/05/11 00:41:38;;;;;;;;;;;;;;;12.28;83.81;97703.59;5102657;28;19933;-67
2023/05/11 00:44:26;;;;;;;;;;;;;;;12.31;83.82;97701.03;5112140;28;20467;-65
2023/05/11 00:47:14;;;;;;;;;;;;;;;12.33;83.75;97704.22;5102405;28;20014;-66
2023/05/11 00:50:02;;;;;;;;;;;;;;;12.22;82.89;97696.75;5120613;27;20399;-66
2023/05/11 00:52:53;;;;;;;;;;;;;;;12.19;82.60;97698.19;5103632;28;20041;-68
2023/05/11 00:55:42;;;;;;;;;;;;;;;12.11;82.48;97700.94;5092932;28;19920;-68
2023/05/11 00:58:32;;;;;;;;;;;;;;;12.05;81.98;97703.06;5103571;28;20331;-66
2023/05/11 01:01:20;;;;;;;;;;;;;;;12.03;82.19;97699.84;5111765;27;19919;-68
2023/05/11 01:04:08;;;;;;;;;;;;;;;12.10;82.52;97702.09;5115832;28;20022;-67
2023/05/11 01:07:00;;;;;;;;;;;;;;;12.08;82.72;97696.94;5087641;28;20012;-66
2023/05/11 01:09:52;;;;;;;;;;;;;;;12.09;82.55;97698.56;5098074;28;19988;-65
2023/05/11 01:12:46;;;;;;;;;;;;;;;12.14;82.90;97695.63;5084295;28;19930;-65
2023/05/11 01:15:43;;;;;;;;;;;;;;;12.14;82.76;97706.53;5128346;27;19931;-68
2023/05/11 01:18:34;;;;;;;;;;;;;;;12.16;83.09;97698.06;5095414;28;20729;-68
2023/05/11 01:21:28;;;;;;;;;;;;;;;12.12;82.51;97705.25;5023608;27;2155801;-67
2023/05/11 01:24:22;;;;;;;;;;;;;;;12.11;82.46;97706.41;5084261;28;20275;-67
2023/05/11 01:27:18;;;;;;;;;;;;;;;12.05;82.69;97698.41;5086005;28;19931;-65
2023/05/11 01:30:21;;;;;;;;;;;;;;;11.97;82.67;97701.16;5090875;28;19989;-67
2023/05/11 01:33:10;;;;;;;;;;;;;;;12.01;82.81;97702.91;5067603;28;19923;-68
2023/05/11 01:36:01;;;;;;;;;;;;;;;12.00;82.72;97705.94;5087299;28;19920;-68
2023/05/11 01:38:49;;;;;;;;;;;;;;;11.94;82.84;97696.38;5068026;28;19924;-66
2023/05/11 01:41:37;;;;;;;;;;;;;;;11.96;83.10;97700.34;5086193;28;20149;-64
2023/05/11 01:44:26;;;;;;;;;;;;;;;11.94;83.35;97694.44;5083166;28;19919;-68
2023/05/11 01:47:15;;;;;;;;;;;;;;;11.90;83.41;97696.22;5077646;28;19931;-68
2023/05/11 01:50:05;;;;;;;;;;;;;;;11.89;83.12;97700.06;5067459;28;20365;-68
2023/05/11 01:52:53;;;;;;;;;;;;;;;11.86;83.38;97699.91;5097268;28;19920;-66
2023/05/11 01:55:41;;;;;;;;;;;;;;;11.87;83.79;97702.28;5088116;28;20403;-68
2023/05/11 01:58:29;;;;;;;;;;;;;;;11.87;83.98;97706.94;5110022;27;19928;-69
2023/05/11 02:04:32;;;;;;;;;;;;;;;11.96;84.67;97692.19;5081936;28;19939;-68
2023/05/11 02:07:20;;;;;;;;;;;;;;;11.96;84.87;97702.28;5094427;28;20003;-68
2023/05/11 02:10:10;;;;;;;;;;;;;;;11.98;84.52;97702.75;5076254;28;20007;-66
2023/05/11 02:12:58;;;;;;;;;;;;;;;11.91;84.62;97703.25;5085308;28;20054;-66
2023/05/11 02:15:47;;;;;;;;;;;;;;;11.85;84.37;97695.59;5105178;27;19973;-68
2023/05/11 02:18:35;;;;;;;;;;;;;;;11.78;84.25;97696.06;5070305;28;19924;-69
2023/05/11 02:21:24;;;;;;;;;;;;;;;11.76;84.48;97696.34;5061275;28;19955;-65
2023/05/11 02:24:13;;;;;;;;;;;;;;;11.72;84.67;97695.44;5070717;28;19925;-67
2023/05/11 02:27:01;;;;;;;;;;;;;;;11.77;85.07;97697.16;5065379;28;19969;-67
2023/05/11 02:29:49;;;;;;;;;;;;;;;11.79;83.94;97693.00;5073653;28;20019;-68
2023/05/11 02:32:39;;;;;;;;;;;;;;;11.71;84.30;97690.28;5078500;28;19939;-69
2023/05/11 02:35:29;;;;;;;;;;;;;;;11.79;84.78;97687.56;5078729;28;19930;-68
2023/05/11 02:38:19;;;;;;;;;;;;;;;11.81;84.92;97692.66;5074053;28;19926;-67
2023/05/11 02:41:08;;;;;;;;;;;;;;;11.78;84.87;97693.34;5070446;28;19994;-64
2023/05/11 02:43:56;;;;;;;;;;;;;;;11.77;85.04;97689.00;5063234;28;19919;-68
2023/05/11 02:46:45;;;;;;;;;;;;;;;11.71;84.66;97688.38;5079262;28;20032;-68
2023/05/11 02:49:33;;;;;;;;;;;;;;;11.61;84.55;97690.63;5095987;27;19973;-65
2023/05/11 02:52:21;;;;;;;;;;;;;;;11.64;84.91;97692.72;5067158;28;19924;-65
2023/05/11 02:55:11;;;;;;;;;;;;;;;11.61;85.05;97691.47;5074629;28;19981;-68
2023/05/11 02:57:59;;;;;;;;;;;;;;;11.59;85.09;97684.72;5067618;28;19924;-65
2023/05/11 03:00:48;;;;;;;;;;;;;;;11.58;85.12;97688.56;5069133;28;19924;-67
2023/05/11 03:03:36;;;;;;;;;;;;;;;11.61;85.25;97688.75;5094620;27;19920;-69
2023/05/11 03:06:24;;;;;;;;;;;;;;;11.57;85.27;97686.97;5071770;28;20021;-65
2023/05/11 03:09:13;;;;;;;;;;;;;;;11.58;85.41;97688.56;5096332;28;19924;-68
2023/05/11 03:12:07;;;;;;;;;;;;;;;11.62;85.87;97689.53;5082649;28;20357;-68
2023/05/11 03:14:56;;;;;;;;;;;;;;;11.63;85.47;97688.41;5073121;28;20455;-65
2023/05/11 03:17:44;;;;;;;;;;;;;;;11.57;85.22;97685.06;5079442;28;20555;-65
2023/05/11 03:20:35;;;;;;;;;;;;;;;11.53;85.40;97684.91;5063848;28;20025;-66
2023/05/11 03:23:23;;;;;;;;;;;;;;;11.50;85.66;97688.28;5053333;28;19920;-67
2023/05/11 03:26:13;;;;;;;;;;;;;;;11.48;85.93;97681.53;5058940;28;19927;-70
2023/05/11 03:29:02;;;;;;;;;;;;;;;11.43;85.72;97684.44;5055629;28;20009;-68
2023/05/11 03:31:51;;;;;;;;;;;;;;;11.45;86.08;97679.47;5058250;28;20046;-68
2023/05/11 03:34:41;;;;;;;;;;;;;;;11.46;86.01;97676.44;5049472;28;19935;-67
2023/05/11 03:37:32;;;;;;;;;;;;;;;11.45;85.88;97685.72;5060450;28;20588;-65
2023/05/11 03:40:21;;;;;;;;;;;;;;;11.43;86.17;97674.34;5053256;28;19975;-68
2023/05/11 03:43:13;;;;;;;;;;;;;;;11.43;86.13;97681.72;5068839;28;20019;-67
2023/05/11 03:46:03;;;;;;;;;;;;;;;11.42;86.29;97686.34;5055797;28;19924;-65
2023/05/11 03:48:52;;;;;;;;;;;;;;;11.41;86.64;97676.59;5053122;28;20404;-66
2023/05/11 03:51:44;;;;;;;;;;;;;;;11.44;86.72;97675.16;5046594;28;19928;-69
2023/05/11 03:54:32;;;;;;;;;;;;;;;11.45;85.99;97674.00;5053048;28;19929;-64
2023/05/11 03:57:20;;;;;;;;;;;;;;;11.42;85.93;97670.03;5056224;28;19964;-66
2023/05/11 04:00:10;;;;;;;;;;;;;;;11.40;86.09;97674.19;5056342;28;20058;-69
2023/05/11 04:03:07;;;;;;;;;;;;;;;11.44;86.30;97675.94;5075367;28;19979;-69
2023/05/11 04:05:55;;;;;;;;;;;;;;;11.54;86.42;97672.09;5067902;28;19931;-65
2023/05/11 04:08:44;;;;;;;;;;;;;;;11.48;85.85;97667.94;5054069;28;19925;-66
2023/05/11 04:11:38;;;;;;;;;;;;;;;11.45;85.26;97669.41;5056629;28;19920;-67
2023/05/11 04:14:26;;;;;;;;;;;;;;;11.44;85.25;97666.97;5048007;28;20281;-65
2023/05/11 04:17:15;;;;;;;;;;;;;;;11.39;84.70;97664.44;5068120;28;19999;-66
2023/05/11 04:20:07;;;;;;;;;;;;;;;11.41;85.45;97675.81;5081684;28;19931;-67
2023/05/11 04:22:55;;;;;;;;;;;;;;;11.38;85.37;97665.56;5078389;28;20015;-69
2023/05/11 04:25:43;;;;;;;;;;;;;;;11.42;85.12;97670.03;5050935;28;20328;-68
2023/05/11 04:28:31;;;;;;;;;;;;;;;11.43;85.42;97671.63;5063254;28;20370;-65
2023/05/11 04:31:19;;;;;;;;;;;;;;;11.45;85.22;97674.84;5052741;28;19927;-68
2023/05/11 04:34:08;;;;;;;;;;;;;;;11.45;83.70;97672.13;5070784;28;19927;-71
2023/05/11 04:36:59;;;;;;;;;;;;;;;11.47;83.43;97683.47;5072908;28;19947;-68
2023/05/11 04:39:48;;;;;;;;;;;;;;;11.42;83.94;97678.19;5078332;28;19920;-68
2023/05/11 04:42:37;;;;;;;;;;;;;;;11.47;82.96;97675.31;5072516;28;20385;-68
2023/05/11 04:45:28;;;;;;;;;;;;;;;11.49;83.12;97681.22;5071769;28;20432;-65
2023/05/11 04:48:16;;;;;;;;;;;;;;;11.59;83.02;97682.81;5043384;28;19975;-67
2023/05/11 04:51:07;;;;;;;;;;;;;;;11.73;82.36;97679.91;5077516;28;20448;-68
2023/05/11 04:54:02;;;;;;;;;;;;;;;11.77;82.18;97678.94;5043283;28;19927;-69
2023/05/11 04:56:51;;;;;;;;;;;;;;;11.79;81.99;97678.59;5074002;28;20538;-69
2023/05/11 04:59:39;;;;;;;;;;;;;;;11.72;82.48;97684.53;5061386;28;19982;-69
2023/05/11 05:02:27;;;;;;;;;;;;;;;11.67;82.38;97676.56;5081799;28;19924;-66
2023/05/11 05:05:16;;;;;;;;;;;;;;;11.68;81.91;97683.59;5051825;28;19920;-67
2023/05/11 05:08:06;;;;;;;;;;;;;;;11.59;81.82;97684.72;5061811;28;19927;-69
2023/05/11 05:10:55;;;;;;;;;;;;;;;11.59;82.34;97682.81;5060129;28;20736;-69
2023/05/11 05:13:46;;;;;;;;;;;;;;;11.58;81.74;97683.94;5052055;28;19983;-69
2023/05/11 05:16:34;;;;;;;;;;;;;;;11.55;82.12;97684.56;5056936;28;19920;-65
2023/05/11 05:19:22;;;;;;;;;;;;;;;11.58;82.15;97688.56;5059633;28;20501;-65
2023/05/11 05:22:11;;;;;;;;;;;;;;;11.48;81.97;97684.25;5060616;28;20274;-66
2023/05/11 05:24:59;;;;;;;;;;;;;;;11.48;82.57;97682.34;5048235;28;19931;-66
2023/05/11 05:27:49;;;;;;;;;;;;;;;11.44;82.95;97694.19;5073161;28;20396;-67
2023/05/11 05:30:39;;;;;;;;;;;;;;;11.42;83.06;97691.78;5056145;28;19924;-64
2023/05/11 05:33:27;;;;;;;;;;;;;;;11.49;82.06;97694.03;5058180;28;19971;-63
2023/05/11 05:36:16;;;;;;;;;;;;;;;11.46;82.54;97697.41;5039859;28;19932;-68
2023/05/11 05:39:08;;;;;;;;;;;;;;;11.52;82.52;97701.56;5069076;28;20152;-68
2023/05/11 05:41:57;;;;;;;;;;;;;;;11.48;83.03;97701.38;5061395;28;19948;-67
2023/05/11 05:44:48;;;;;;;;;;;;;;;11.50;82.22;97704.59;5065373;28;19925;-66
2023/05/11 05:47:36;;;;;;;;;;;;;;;11.50;82.45;97704.59;5054821;28;19933;-68
2023/05/11 05:50:24;;;;;;;;;;;;;;;11.51;82.98;97700.75;5044877;28;19921;-65
2023/05/11 05:53:12;;;;;;;;;;;;;;;11.53;83.16;97703.94;5040434;28;19925;-65
2023/05/11 05:56:01;;;;;;;;;;;;;;;11.50;83.28;97701.88;5076749;28;19928;-66
2023/05/11 05:58:50;;;;;;;;;;;;;;;11.54;82.45;97702.81;5037205;28;19964;-67
2023/05/11 06:01:44;;;;;;;;;;;;;;;11.53;82.90;97706.66;5031243;28;20373;-66
2023/05/11 06:04:34;;;;;;;;;;;;;;;11.50;83.75;97710.03;5047335;28;20025;-68
2023/05/11 06:07:22;;;;;;;;;;;;;;;11.52;83.07;97710.50;5056159;28;19932;-67
2023/05/11 06:10:10;;;;;;;;;;;;;;;11.50;83.51;97715.47;5069926;28;20007;-66
2023/05/11 06:13:27;;;;;;;;;;;;;;;11.46;83.43;97709.06;5039442;28;19931;-68
2023/05/11 06:16:16;;;;;;;;;;;;;;;11.48;84.03;97712.25;5067827;28;19920;-68
2023/05/11 06:19:07;;;;;;;;;;;;;;;11.43;84.29;97712.44;5036924;28;19932;-67
2023/05/11 06:21:55;;;;;;;;;;;;;;;11.51;84.27;97717.06;5058473;28;19929;-67
2023/05/11 06:24:44;;;;;;;;;;;;;;;11.67;83.82;97719.28;5050376;28;19920;-63
2023/05/11 06:27:32;;;;;;;;;;;;;;;11.61;82.88;97720.56;5044629;28;19924;-67
2023/05/11 06:30:20;;;;;;;;;;;;;;;11.52;83.11;97712.44;5046512;28;19947;-67
2023/05/11 06:33:11;;;;;;;;;;;;;;;11.51;83.23;97710.84;5035815;28;20313;-67
2023/05/11 06:36:05;;;;;;;;;;;;;;;11.52;83.41;97707.78;5038294;28;19924;-66
2023/05/11 06:38:54;;;;;;;;;;;;;;;11.52;83.64;97710.50;5052033;28;19924;-67
2023/05/11 06:41:43;;;;;;;;;;;;;;;11.55;83.84;97715.28;5057687;28;20019;-68
2023/05/11 06:44:31;;;;;;;;;;;;;;;11.54;84.61;97716.41;5055302;28;19924;-67
2023/05/11 06:47:19;;;;;;;;;;;;;;;11.68;83.42;97710.81;5069653;28;20588;-66
2023/05/11 06:50:08;;;;;;;;;;;;;;;11.70;82.84;97714.00;5042342;28;20054;-64
2023/05/11 06:52:59;;;;;;;;;;;;;;;11.62;83.04;97703.13;5050190;28;19924;-66
2023/05/11 06:55:49;;;;;;;;;;;;;;;11.65;82.69;97710.63;5061289;28;19925;-68
2023/05/11 06:58:37;;;;;;;;;;;;;;;11.66;82.54;97710.31;5057378;28;20015;-67
2023/05/11 07:01:26;;;;;;;;;;;;;;;11.76;81.97;97696.34;5058524;28;19929;-68
2023/05/11 07:04:15;;;;;;;;;;;;;;;11.81;82.07;97709.00;5052925;28;19933;-67
2023/05/11 07:07:03;;;;;;;;;;;;;;;11.74;82.90;97711.44;5058770;28;19972;-66
2023/05/11 07:09:53;;;;;;;;;;;;;;;11.72;82.17;97713.69;5063434;28;19926;-69
2023/05/11 07:12:41;;;;;;;;;;;;;;;11.68;82.20;97718.97;5052365;28;19925;-68
2023/05/11 07:15:29;;;;;;;;;;;;;;;11.67;82.88;97717.38;5066551;28;19921;-68
2023/05/11 07:18:17;;;;;;;;;;;;;;;11.74;82.88;97719.59;5045392;28;19970;-68
2023/05/11 07:21:05;;;;;;;;;;;;;;;11.78;82.61;97720.56;5041569;28;19932;-65
2023/05/11 07:23:53;;;;;;;;;;;;;;;11.86;82.26;97722.47;5056805;28;19924;-67
2023/05/11 07:26:43;;;;;;;;;;;;;;;11.91;81.42;97716.84;5061061;28;20389;-66
2023/05/11 07:29:31;;;;;;;;;;;;;;;11.91;81.51;97727.75;5067024;28;20011;-66
2023/05/11 07:32:19;;;;;;;;;;;;;;;11.82;81.34;97723.44;5048757;28;20074;-67
2023/05/11 07:35:07;;;;;;;;;;;;;;;11.77;82.25;97718.94;5055544;28;20045;-67
2023/05/11 07:37:56;;;;;;;;;;;;;;;11.77;82.10;97722.47;5060937;28;19932;-67
2023/05/11 07:40:44;;;;;;;;;;;;;;;11.82;82.38;97726.97;5062551;28;19993;-66
2023/05/11 07:43:34;;;;;;;;;;;;;;;11.78;81.80;97724.06;5076385;28;19920;-65
2023/05/11 07:46:22;;;;;;;;;;;;;;;11.70;82.41;97724.06;5067052;28;19927;-68
2023/05/11 07:49:10;;;;;;;;;;;;;;;11.70;82.81;97724.06;5061124;28;19924;-66
2023/05/11 07:52:05;;;;;;;;;;;;;;;11.62;82.82;97728.44;5073251;28;19927;-66
2023/05/11 07:54:54;;;;;;;;;;;;;;;11.62;83.23;97731.16;5053700;28;19959;-66
2023/05/11 07:57:42;;;;;;;;;;;;;;;11.62;83.16;97724.91;5073568;28;20526;-67
2023/05/11 08:00:32;;;;;;;;;;;;;;;11.61;83.69;97721.38;5073916;28;19932;-66
2023/05/11 08:03:20;;;;;;;;;;;;;;;11.57;83.75;97722.34;5048431;28;19920;-66
2023/05/11 08:06:08;;;;;;;;;;;;;;;11.59;84.54;97723.63;5062055;28;20025;-66
2023/05/11 08:08:57;;;;;;;;;;;;;;;11.64;84.85;97719.94;5059436;28;20466;-67
2023/05/11 08:11:45;;;;;;;;;;;;;;;11.76;83.96;97723.56;5069077;28;19929;-67
2023/05/11 08:14:33;;;;;;;;;;;;;;;11.75;83.30;97718.47;5064439;28;19920;-66
2023/05/11 08:17:22;;;;;;;;;;;;;;;11.90;82.91;97718.00;5065319;28;20030;-66
2023/05/11 08:20:11;;;;;;;;;;;;;;;11.88;83.31;97722.97;5080481;27;20452;-63
2023/05/11 08:22:59;;;;;;;;;;;;;;;11.77;83.51;97718.94;5110011;27;19931;-67
2023/05/11 08:25:49;;;;;;;;;;;;;;;11.73;84.11;97726.97;5089215;27;20028;-61
2023/05/11 08:28:37;;;;;;;;;;;;;;;11.70;84.38;97719.44;5093837;28;19927;-66
2023/05/11 08:31:25;;;;;;;;;;;;;;;11.70;84.42;97721.34;5108381;27;19923;-63
2023/05/11 08:34:15;;;;;;;;;;;;;;;11.69;85.19;97722.47;5102676;27;19924;-63
2023/05/11 08:37:07;;;;;;;;;;;;;;;11.68;84.67;97723.63;5101801;27;20356;-61
2023/05/11 08:39:55;;;;;;;;;;;;;;;11.73;84.72;97720.72;5098008;27;19980;-62
2023/05/11 08:42:43;;;;;;;;;;;;;;;11.69;84.79;97717.84;5107960;27;19919;-72
2023/05/11 08:45:31;;;;;;;;;;;;;;;11.76;85.10;97722.78;5101331;28;20487;-66
2023/05/11 08:48:21;;;;;;;;;;;;;;;11.81;84.95;97719.88;5102268;27;19924;-63
2023/05/11 08:51:11;;;;;;;;;;;;;;;11.75;84.57;97718.47;5108000;28;19989;-66
2023/05/11 08:53:59;;;;;;;;;;;;;;;11.80;84.34;97724.53;5103104;28;19935;-64
2023/05/11 08:56:47;;;;;;;;;;;;;;;11.75;84.43;97715.75;5100627;28;19920;-67
2023/05/11 08:59:35;;;;;;;;;;;;;;;11.79;84.20;97722.16;5109301;27;19931;-61
2023/05/11 09:02:23;;;;;;;;;;;;;;;11.86;83.76;97717.03;5117627;27;19953;-65
2023/05/11 09:05:12;;;;;;;;;;;;;;;11.84;83.91;97727.44;5107812;28;19924;-63
2023/05/11 09:08:02;;;;;;;;;;;;;;;11.81;84.51;97730.78;5101011;27;19924;-62
2023/05/11 09:10:50;;;;;;;;;;;;;;;11.81;85.03;97725.34;5109324;27;19930;-62
2023/05/11 09:13:39;;;;;;;;;;;;;;;11.80;85.06;97723.75;5106924;27;19920;-64
2023/05/11 09:16:27;;;;;;;;;;;;;;;11.84;84.63;97724.72;5097047;28;20322;-62
2023/05/11 09:19:23;;;;;;;;;;;;;;;11.91;85.28;97722.31;5101227;27;19982;-62
2023/05/11 09:22:13;;;;;;;;;;;;;;;11.91;85.88;97725.03;5065276;28;19925;-65
2023/05/11 09:25:03;;;;;;;;;;;;;;;11.95;85.33;97725.97;5045871;28;19921;-63
2023/05/11 09:27:52;;;;;;;;;;;;;;;11.88;85.52;97722.13;5065769;28;19928;-66
2023/05/11 09:30:40;;;;;;;;;;;;;;;11.88;86.22;97730.31;5069497;28;20022;-63
2023/05/11 09:33:28;;;;;;;;;;;;;;;11.91;86.14;97721.50;5050858;28;19932;-62
2023/05/11 09:36:22;;;;;;;;;;;;;;;11.98;85.83;97721.78;5073450;28;19924;-64
2023/05/11 09:39:11;;;;;;;;;;;;;;;12.01;85.80;97724.69;5071357;28;19935;-62
2023/05/11 09:42:13;;;;;;;;;;;;;;;12.06;85.54;97713.63;5067326;28;20033;-57
2023/05/11 09:45:02;;;;;;;;;;;;;;;12.07;85.20;97717.13;5066730;28;19982;-58
2023/05/11 09:47:50;;;;;;;;;;;;;;;12.11;84.76;97725.47;5061491;28;19931;-58
2023/05/11 09:50:41;;;;;;;;;;;;;;;12.12;85.03;97714.22;5070802;28;19924;-58
2023/05/11 09:53:36;;;;;;;;;;;;;;;12.21;84.80;97711.50;5070160;28;19932;-58
2023/05/11 09:56:24;;;;;;;;;;;;;;;12.17;84.74;97713.25;5062970;28;20338;-58
2023/05/11 09:59:16;;;;;;;;;;;;;;;12.13;85.39;97710.38;5046332;28;20366;-59
2023/05/11 10:02:20;;;;;;;;;;;;;;;12.07;84.87;97708.97;5056990;28;20289;-59
2023/05/11 10:05:11;;;;;;;;;;;;;;;12.10;85.49;97716.50;5052970;28;19928;-59
2023/05/11 10:08:00;;;;;;;;;;;;;;;12.06;85.25;97721.78;5053033;28;19927;-59
2023/05/11 10:10:48;;;;;;;;;;;;;;;12.06;85.04;97710.88;5052537;28;20388;-58
2023/05/11 10:13:36;;;;;;;;;;;;;;;12.12;85.46;97708.00;5062601;28;20513;-59
2023/05/11 10:16:26;;;;;;;;;;;;;;;12.12;84.73;97708.00;5048218;28;19932;-58
2023/05/11 10:19:14;;;;;;;;;;;;;;;12.21;84.54;97697.88;5059928;28;20011;-59
2023/05/11 10:22:04;;;;;;;;;;;;;;;12.29;84.28;97697.03;5060252;28;19937;-61
2023/05/11 10:24:53;;;;;;;;;;;;;;;12.38;84.86;97689.63;5064512;28;20258;-58
2023/05/11 10:27:41;;;;;;;;;;;;;;;12.47;85.25;97693.09;5079422;28;19924;-59
2023/05/11 10:30:30;;;;;;;;;;;;;;;12.50;84.55;97692.41;5079041;28;19928;-58
2023/05/11 10:33:20;;;;;;;;;;;;;;;12.51;84.38;97694.00;5076019;28;20677;-59
2023/05/11 10:36:08;;;;;;;;;;;;;;;12.68;83.79;97695.88;5081748;28;19932;-58
2023/05/11 10:38:56;;;;;;;;;;;;;;;12.74;83.45;97689.09;5080684;28;20435;-58
2023/05/11 10:41:52;;;;;;;;;;;;;;;12.70;83.80;97690.06;5093018;27;19920;-58
2023/05/11 10:44:52;;;;;;;;;;;;;;;12.62;83.01;97685.47;5074741;28;20448;-59
2023/05/11 10:47:55;;;;;;;;;;;;;;;12.61;83.33;97683.88;5075882;28;20029;-58
2023/05/11 10:51:01;;;;;;;;;;;;;;;12.45;82.45;97678.19;5081335;28;19969;-58
2023/05/11 10:54:07;;;;;;;;;;;;;;;12.33;83.84;97682.41;5083613;28;20078;-58
2023/05/11 10:57:11;;;;;;;;;;;;;;;12.22;83.49;97678.47;5080924;28;19928;-58
2023/05/11 11:00:13;;;;;;;;;;;;;;;12.27;83.46;97681.00;5081898;28;19928;-58
2023/05/11 11:03:08;;;;;;;;;;;;;;;12.33;84.20;97676.19;5074758;28;19925;-60
2023/05/11 11:05:58;;;;;;;;;;;;;;;12.27;84.19;97677.50;5080515;28;19929;-59
2023/05/11 11:08:57;;;;;;;;;;;;;;;12.17;85.62;97684.09;5087920;28;20042;-59
2023/05/11 11:11:46;;;;;;;;;;;;;;;12.15;85.71;97680.13;5095965;28;20345;-58
2023/05/11 11:14:50;;;;;;;;;;;;;;;12.16;85.13;97677.06;5062653;28;20289;-58
2023/05/11 11:17:38;;;;;;;;;;;;;;;12.17;85.20;97672.41;5076419;28;19968;-58
2023/05/11 11:20:45;;;;;;;;;;;;;;;12.22;85.35;97677.69;5068872;28;19924;-58
2023/05/11 11:23:44;;;;;;;;;;;;;;;12.28;85.46;97679.09;5083614;28;20392;-58
2023/05/11 11:26:49;;;;;;;;;;;;;;;12.22;85.01;97677.69;5081420;28;19933;-58
2023/05/11 11:29:38;;;;;;;;;;;;;;;12.23;85.08;97679.25;5078458;28;20465;-59
2023/05/11 11:32:27;;;;;;;;;;;;;;;12.21;85.60;97676.09;5088427;27;19932;-58
2023/05/11 11:35:34;;;;;;;;;;;;;;;12.14;84.75;97673.06;5105306;27;20331;-58
2023/05/11 11:38:22;;;;;;;;;;;;;;;11.98;85.36;97681.75;5102113;27;19920;-58
2023/05/11 11:41:12;;;;;;;;;;;;;;;11.98;85.76;97681.75;5093513;27;20018;-58
2023/05/11 11:44:00;;;;;;;;;;;;;;;11.90;85.96;97690.75;5111804;27;19932;-58
2023/05/11 11:46:48;;;;;;;;;;;;;;;11.89;86.53;97689.16;5112678;27;19989;-58
2023/05/11 11:49:37;;;;;;;;;;;;;;;11.90;86.74;97690.75;5083711;27;19927;-58
2023/05/11 11:52:32;;;;;;;;;;;;;;;11.95;86.98;97692.50;5101945;27;19920;-58
2023/05/11 11:55:34;;;;;;;;;;;;;;;11.96;87.12;97692.19;5106969;27;19926;-58
2023/05/11 11:58:41;;;;;;;;;;;;;;;11.95;86.73;97689.78;5105184;27;20004;-62
2023/05/11 12:01:38;;;;;;;;;;;;;;;11.94;85.35;97680.84;5120109;27;19920;-58
2023/05/11 12:04:32;;;;;;;;;;;;;;;11.96;86.38;97683.22;5111096;27;19919;-58
2023/05/11 12:07:20;;;;;;;;;;;;;;;12.05;86.83;97682.06;5103665;27;19932;-58
2023/05/11 12:10:10;;;;;;;;;;;;;;;12.09;86.65;97686.84;5117933;27;19924;-59
2023/05/11 12:12:59;;;;;;;;;;;;;;;12.16;86.83;97684.44;5112269;27;19935;-59
2023/05/11 12:15:47;;;;;;;;;;;;;;;12.23;85.83;97690.16;5114822;27;20038;-58
2023/05/11 12:18:37;;;;;;;;;;;;;;;12.21;86.25;97685.03;5099744;27;20039;-58
2023/05/11 12:21:30;;;;;;;;;;;;;;;12.32;85.69;97685.47;5110925;27;20133;-58
2023/05/11 12:24:21;;;;;;;;;;;;;;;12.34;85.24;97683.22;5078882;28;19931;-58
2023/05/11 12:27:10;;;;;;;;;;;;;;;12.30;86.26;97685.81;5087242;28;20332;-58
2023/05/11 12:29:59;;;;;;;;;;;;;;;12.26;86.68;97689.53;5072139;28;19927;-58
2023/05/11 12:32:47;;;;;;;;;;;;;;;12.26;86.67;97687.59;5058936;28;20350;-58
2023/05/11 12:35:39;;;;;;;;;;;;;;;12.26;86.77;97692.25;5080405;28;20499;-58
2023/05/11 12:38:27;;;;;;;;;;;;;;;12.21;87.30;97700.59;5090416;28;19965;-58
2023/05/11 12:41:18;;;;;;;;;;;;;;;12.13;87.39;97693.25;5080854;28;20588;-59
2023/05/11 12:44:07;;;;;;;;;;;;;;;11.98;87.71;97689.91;5076928;28;19943;-58
2023/05/11 12:46:55;;;;;;;;;;;;;;;12.01;88.31;97696.66;5082042;28;19928;-58
2023/05/11 12:49:43;;;;;;;;;;;;;;;12.04;88.88;97696.81;5103445;27;19992;-58
2023/05/11 12:52:33;;;;;;;;;;;;;;;12.05;88.51;97698.41;5079687;28;19924;-58
2023/05/11 12:55:27;;;;;;;;;;;;;;;11.92;88.25;97696.66;5067190;28;20080;-58
2023/05/11 12:58:17;;;;;;;;;;;;;;;11.90;88.20;97696.22;5066473;28;20023;-58
2023/05/11 13:01:07;;;;;;;;;;;;;;;11.88;87.30;97684.03;5074165;28;19927;-59
2023/05/11 13:03:56;;;;;;;;;;;;;;;11.91;87.17;97678.75;5068422;28;19981;-58
2023/05/11 13:06:44;;;;;;;;;;;;;;;12.03;87.71;97672.59;5093333;28;20440;-58
2023/05/11 13:09:38;;;;;;;;;;;;;;;12.25;88.14;97679.72;5093736;28;20412;-59
2023/05/11 13:12:26;;;;;;;;;;;;;;;12.31;87.57;97690.13;5084714;28;19927;-58
2023/05/11 13:15:18;;;;;;;;;;;;;;;12.39;88.00;97679.50;5085964;28;19924;-59
2023/05/11 13:18:07;;;;;;;;;;;;;;;12.47;88.08;97679.47;5059150;28;19928;-59
2023/05/11 13:21:06;;;;;;;;;;;;;;;12.53;87.79;97677.34;5076952;28;19934;-58
2023/05/11 13:23:54;;;;;;;;;;;;;;;12.64;87.58;97680.50;5073692;28;19924;-58
2023/05/11 13:26:45;;;;;;;;;;;;;;;12.77;87.31;97682.16;5072024;28;19924;-60
2023/05/11 13:29:33;;;;;;;;;;;;;;;12.76;86.22;97677.84;5083986;28;20007;-59
2023/05/11 13:32:23;;;;;;;;;;;;;;;12.75;86.39;97678.97;5095134;28;19924;-59
2023/05/11 13:35:26;;;;;;;;;;;;;;;12.87;85.92;97665.41;5066965;28;19924;-58
2023/05/11 13:38:20;;;;;;;;;;;;;;;12.92;85.22;97678.06;5084927;28;19920;-58
2023/05/11 13:41:26;;;;;;;;;;;;;;;13.05;85.01;97677.00;5076502;28;19935;-60
2023/05/11 13:44:17;;;;;;;;;;;;;;;12.99;83.80;97678.31;5068261;28;19932;-60
2023/05/11 13:47:06;;;;;;;;;;;;;;;12.97;84.44;97673.22;5080742;28;19920;-59
2023/05/11 13:49:54;;;;;;;;;;;;;;;12.90;84.25;97683.06;5090750;28;19927;-59
2023/05/11 13:52:42;;;;;;;;;;;;;;;12.83;85.33;97678.09;5081094;28;19924;-59
2023/05/11 13:55:31;;;;;;;;;;;;;;;12.80;84.98;97684.25;5066497;28;19925;-60
2023/05/11 13:58:19;;;;;;;;;;;;;;;12.79;85.83;97671.75;5079216;28;19925;-59
2023/05/11 14:01:09;;;;;;;;;;;;;;;12.68;86.00;97673.28;5073773;28;19920;-63
2023/05/11 14:03:58;;;;;;;;;;;;;;;12.61;86.09;97671.03;5068759;28;19921;-60
2023/05/11 14:06:47;;;;;;;;;;;;;;;12.61;85.54;97668.31;5078975;28;19931;-59
2023/05/11 14:09:37;;;;;;;;;;;;;;;12.54;85.79;97677.03;5084924;28;19920;-59
2023/05/11 14:12:26;;;;;;;;;;;;;;;12.45;85.46;97668.09;5071723;28;19924;-59
2023/05/11 14:15:18;;;;;;;;;;;;;;;12.44;85.46;97669.22;5083173;28;19920;-58
2023/05/11 14:18:08;;;;;;;;;;;;;;;12.46;85.84;97666.16;5077343;28;20404;-61
2023/05/11 14:20:57;;;;;;;;;;;;;;;12.39;86.22;97663.97;5097019;27;19973;-60
2023/05/11 14:23:45;;;;;;;;;;;;;;;12.44;86.60;97660.25;5090333;27;20427;-58
2023/05/11 14:26:49;;;;;;;;;;;;;;;12.47;86.30;97663.13;5118081;27;19977;-59
2023/05/11 14:29:37;;;;;;;;;;;;;;;12.52;86.30;97651.25;5098754;27;19927;-59
2023/05/11 14:32:29;;;;;;;;;;;;;;;12.51;86.13;97661.31;5106394;27;19931;-58
2023/05/11 14:35:18;;;;;;;;;;;;;;;12.51;86.02;97661.31;5093783;28;20364;-58
2023/05/11 14:38:07;;;;;;;;;;;;;;;12.50;86.22;97654.28;5097787;28;20010;-59
2023/05/11 14:40:55;;;;;;;;;;;;;;;12.48;86.25;97653.03;5096678;28;19931;-59
2023/05/11 14:43:44;;;;;;;;;;;;;;;12.49;86.01;97649.97;5095108;28;19923;-59
2023/05/11 14:46:32;;;;;;;;;;;;;;;12.41;86.78;97645.38;5096246;28;20023;-59
2023/05/11 14:49:21;;;;;;;;;;;;;;;12.36;87.37;97651.00;5091213;27;19954;-59
2023/05/11 14:52:10;;;;;;;;;;;;;;;12.31;88.06;97648.47;5101857;27;19935;-59